sensor_id;sensor_type;location;lat;lon;timestamp;P1;durP1;ratioP1;P2;durP2;ratioP2
6424;SDS011;12193;42.642;23.384;2022-07-29T00:01:33;10.00;;;7.85;;
6424;SDS011;12193;42.642;23.384;2022-07-29T00:04:03;10.57;;;8.43;;
6424;SDS011;12193;42.642;23.384;2022-07-29T00:06:35;11.32;;;8.20;;
6424;SDS011;12193;42.642;23.384;2022-07-29T00:09:04;10.88;;;8.35;;
6424;SDS011;12193;42.642;23.384;2022-07-29T00:11:34;10.40;;;8.40;;
6424;SDS011;12193;42.642;23.384;2022-07-29T00:14:03;11.48;;;8.40;;
6424;SDS011;12193;42.642;23.384;2022-07-29T00:16:33;12.27;;;8.50;;
6424;SDS011;12193;42.642;23.384;2022-07-29T00:19:02;10.70;;;8.15;;
6424;SDS011;12193;42.642;23.384;2022-07-29T00:21:36;12.60;;;8.50;;
6424;SDS011;12193;42.642;23.384;2022-07-29T00:24:05;11.60;;;8.05;;
6424;SDS011;12193;42.642;23.384;2022-07-29T00:26:35;12.20;;;8.10;;
6424;SDS011;12193;42.642;23.384;2022-07-29T00:29:04;11.07;;;8.32;;
6424;SDS011;12193;42.642;23.384;2022-07-29T00:31:33;11.27;;;8.38;;
6424;SDS011;12193;42.642;23.384;2022-07-29T00:34:02;11.23;;;7.85;;
6424;SDS011;12193;42.642;23.384;2022-07-29T00:36:55;11.07;;;8.20;;
6424;SDS011;12193;42.642;23.384;2022-07-29T00:39:21;11.65;;;8.30;;
6424;SDS011;12193;42.642;23.384;2022-07-29T00:41:50;12.75;;;8.98;;
6424;SDS011;12193;42.642;23.384;2022-07-29T00:44:20;10.00;;;8.55;;
6424;SDS011;12193;42.642;23.384;2022-07-29T00:46:49;11.43;;;8.70;;
6424;SDS011;12193;42.642;23.384;2022-07-29T00:49:18;13.90;;;8.88;;
6424;SDS011;12193;42.642;23.384;2022-07-29T00:51:48;12.80;;;9.23;;
6424;SDS011;12193;42.642;23.384;2022-07-29T00:54:21;11.05;;;8.75;;
6424;SDS011;12193;42.642;23.384;2022-07-29T00:56:52;12.18;;;9.00;;
6424;SDS011;12193;42.642;23.384;2022-07-29T00:59:22;12.50;;;9.00;;
6424;SDS011;12193;42.642;23.384;2022-07-29T01:01:51;11.45;;;8.75;;
6424;SDS011;12193;42.642;23.384;2022-07-29T01:04:20;11.35;;;8.98;;
6424;SDS011;12193;42.642;23.384;2022-07-29T01:06:50;11.80;;;8.82;;
6424;SDS011;12193;42.642;23.384;2022-07-29T01:09:24;9.73;;;8.40;;
6424;SDS011;12193;42.642;23.384;2022-07-29T01:11:55;10.80;;;8.60;;
6424;SDS011;12193;42.642;23.384;2022-07-29T01:14:25;11.55;;;8.73;;
6424;SDS011;12193;42.642;23.384;2022-07-29T01:16:57;11.68;;;8.63;;
6424;SDS011;12193;42.642;23.384;2022-07-29T01:19:35;12.13;;;8.52;;
6424;SDS011;12193;42.642;23.384;2022-07-29T01:22:26;11.25;;;8.52;;
6424;SDS011;12193;42.642;23.384;2022-07-29T01:25:09;12.55;;;8.73;;
6424;SDS011;12193;42.642;23.384;2022-07-29T01:28:01;10.77;;;8.70;;
6424;SDS011;12193;42.642;23.384;2022-07-29T01:30:49;13.90;;;9.05;;
6424;SDS011;12193;42.642;23.384;2022-07-29T01:33:20;11.65;;;8.80;;
6424;SDS011;12193;42.642;23.384;2022-07-29T01:36:06;12.05;;;9.40;;
6424;SDS011;12193;42.642;23.384;2022-07-29T01:38:39;12.00;;;8.80;;
6424;SDS011;12193;42.642;23.384;2022-07-29T01:41:12;11.50;;;8.85;;
6424;SDS011;12193;42.642;23.384;2022-07-29T01:43:44;12.02;;;9.05;;
6424;SDS011;12193;42.642;23.384;2022-07-29T01:46:24;11.75;;;8.80;;
6424;SDS011;12193;42.642;23.384;2022-07-29T01:49:01;14.52;;;8.75;;
6424;SDS011;12193;42.642;23.384;2022-07-29T01:51:38;10.20;;;8.50;;
6424;SDS011;12193;42.642;23.384;2022-07-29T01:54:12;11.77;;;8.45;;
6424;SDS011;12193;42.642;23.384;2022-07-29T01:56:48;13.00;;;8.35;;
6424;SDS011;12193;42.642;23.384;2022-07-29T01:59:19;10.18;;;8.30;;
6424;SDS011;12193;42.642;23.384;2022-07-29T02:01:53;10.77;;;8.02;;
6424;SDS011;12193;42.642;23.384;2022-07-29T02:04:23;11.30;;;8.70;;
6424;SDS011;12193;42.642;23.384;2022-07-29T02:06:55;11.75;;;7.93;;
6424;SDS011;12193;42.642;23.384;2022-07-29T02:09:27;11.68;;;8.40;;
6424;SDS011;12193;42.642;23.384;2022-07-29T02:11:59;11.73;;;8.38;;
6424;SDS011;12193;42.642;23.384;2022-07-29T02:14:30;11.57;;;8.32;;
6424;SDS011;12193;42.642;23.384;2022-07-29T02:17:05;14.77;;;8.70;;
6424;SDS011;12193;42.642;23.384;2022-07-29T02:19:35;10.73;;;8.35;;
6424;SDS011;12193;42.642;23.384;2022-07-29T02:22:06;12.80;;;8.95;;
6424;SDS011;12193;42.642;23.384;2022-07-29T02:24:37;12.13;;;8.70;;
6424;SDS011;12193;42.642;23.384;2022-07-29T02:27:09;11.25;;;8.68;;
6424;SDS011;12193;42.642;23.384;2022-07-29T02:29:40;11.75;;;8.57;;
6424;SDS011;12193;42.642;23.384;2022-07-29T02:32:14;14.07;;;8.68;;
6424;SDS011;12193;42.642;23.384;2022-07-29T02:34:45;12.40;;;8.07;;
6424;SDS011;12193;42.642;23.384;2022-07-29T02:37:16;11.70;;;8.30;;
6424;SDS011;12193;42.642;23.384;2022-07-29T02:39:47;15.43;;;8.15;;
6424;SDS011;12193;42.642;23.384;2022-07-29T02:42:21;12.20;;;8.25;;
6424;SDS011;12193;42.642;23.384;2022-07-29T02:44:51;11.63;;;8.35;;
6424;SDS011;12193;42.642;23.384;2022-07-29T02:47:24;10.68;;;8.40;;
6424;SDS011;12193;42.642;23.384;2022-07-29T02:50:06;12.85;;;8.15;;
6424;SDS011;12193;42.642;23.384;2022-07-29T02:52:39;11.80;;;8.10;;
6424;SDS011;12193;42.642;23.384;2022-07-29T02:55:15;10.63;;;7.88;;
6424;SDS011;12193;42.642;23.384;2022-07-29T03:00:23;11.70;;;8.20;;
6424;SDS011;12193;42.642;23.384;2022-07-29T03:02:59;11.73;;;8.07;;
6424;SDS011;12193;42.642;23.384;2022-07-29T03:05:32;12.45;;;8.05;;
6424;SDS011;12193;42.642;23.384;2022-07-29T03:08:02;12.77;;;8.70;;
6424;SDS011;12193;42.642;23.384;2022-07-29T03:10:34;13.63;;;9.52;;
6424;SDS011;12193;42.642;23.384;2022-07-29T03:13:05;14.55;;;9.77;;
6424;SDS011;12193;42.642;23.384;2022-07-29T03:15:37;17.40;;;10.43;;
6424;SDS011;12193;42.642;23.384;2022-07-29T03:18:09;17.63;;;11.10;;
6424;SDS011;12193;42.642;23.384;2022-07-29T03:20:39;15.38;;;11.20;;
6424;SDS011;12193;42.642;23.384;2022-07-29T03:23:09;16.15;;;11.50;;
6424;SDS011;12193;42.642;23.384;2022-07-29T03:25:38;17.15;;;11.20;;
6424;SDS011;12193;42.642;23.384;2022-07-29T03:28:08;16.42;;;11.68;;
6424;SDS011;12193;42.642;23.384;2022-07-29T03:30:37;17.88;;;12.40;;
6424;SDS011;12193;42.642;23.384;2022-07-29T03:33:09;16.90;;;12.68;;
6424;SDS011;12193;42.642;23.384;2022-07-29T03:35:39;19.65;;;12.52;;
6424;SDS011;12193;42.642;23.384;2022-07-29T03:38:09;17.83;;;12.50;;
6424;SDS011;12193;42.642;23.384;2022-07-29T03:40:38;19.42;;;13.13;;
6424;SDS011;12193;42.642;23.384;2022-07-29T03:43:13;20.95;;;13.68;;
6424;SDS011;12193;42.642;23.384;2022-07-29T03:45:47;22.38;;;13.93;;
6424;SDS011;12193;42.642;23.384;2022-07-29T03:48:22;18.92;;;13.30;;
6424;SDS011;12193;42.642;23.384;2022-07-29T03:50:55;15.43;;;12.35;;
6424;SDS011;12193;42.642;23.384;2022-07-29T03:53:24;15.98;;;11.57;;
6424;SDS011;12193;42.642;23.384;2022-07-29T03:55:54;17.23;;;11.32;;
6424;SDS011;12193;42.642;23.384;2022-07-29T03:58:28;11.32;;;8.70;;
6424;SDS011;12193;42.642;23.384;2022-07-29T04:01:00;13.07;;;8.52;;
6424;SDS011;12193;42.642;23.384;2022-07-29T04:03:32;12.13;;;8.50;;
6424;SDS011;12193;42.642;23.384;2022-07-29T04:06:03;11.68;;;8.35;;
6424;SDS011;12193;42.642;23.384;2022-07-29T04:08:34;10.23;;;8.20;;
6424;SDS011;12193;42.642;23.384;2022-07-29T04:11:04;12.13;;;8.35;;
6424;SDS011;12193;42.642;23.384;2022-07-29T04:13:34;11.07;;;8.07;;
6424;SDS011;12193;42.642;23.384;2022-07-29T04:16:04;13.90;;;8.50;;
6424;SDS011;12193;42.642;23.384;2022-07-29T04:18:36;13.43;;;9.15;;
6424;SDS011;12193;42.642;23.384;2022-07-29T04:21:11;12.15;;;8.27;;
6424;SDS011;12193;42.642;23.384;2022-07-29T04:23:41;12.38;;;8.15;;
6424;SDS011;12193;42.642;23.384;2022-07-29T04:26:10;11.80;;;7.80;;
6424;SDS011;12193;42.642;23.384;2022-07-29T04:28:43;12.40;;;7.68;;
6424;SDS011;12193;42.642;23.384;2022-07-29T04:31:13;10.98;;;6.90;;
6424;SDS011;12193;42.642;23.384;2022-07-29T04:33:45;11.50;;;7.88;;
6424;SDS011;12193;42.642;23.384;2022-07-29T04:36:14;8.60;;;7.18;;
6424;SDS011;12193;42.642;23.384;2022-07-29T04:38:43;12.65;;;7.50;;
6424;SDS011;12193;42.642;23.384;2022-07-29T04:41:12;10.73;;;7.18;;
6424;SDS011;12193;42.642;23.384;2022-07-29T04:43:42;10.13;;;7.43;;
6424;SDS011;12193;42.642;23.384;2022-07-29T04:46:11;10.68;;;7.15;;
6424;SDS011;12193;42.642;23.384;2022-07-29T04:48:40;9.20;;;7.00;;
6424;SDS011;12193;42.642;23.384;2022-07-29T04:51:12;9.82;;;7.07;;
6424;SDS011;12193;42.642;23.384;2022-07-29T04:53:42;9.68;;;7.00;;
6424;SDS011;12193;42.642;23.384;2022-07-29T04:56:11;9.95;;;6.75;;
6424;SDS011;12193;42.642;23.384;2022-07-29T04:58:42;9.57;;;7.00;;
6424;SDS011;12193;42.642;23.384;2022-07-29T05:01:12;9.55;;;7.05;;
6424;SDS011;12193;42.642;23.384;2022-07-29T05:03:42;8.60;;;7.05;;
6424;SDS011;12193;42.642;23.384;2022-07-29T05:06:15;8.32;;;6.60;;
6424;SDS011;12193;42.642;23.384;2022-07-29T05:08:44;9.07;;;7.07;;
6424;SDS011;12193;42.642;23.384;2022-07-29T05:11:13;12.60;;;7.05;;
6424;SDS011;12193;42.642;23.384;2022-07-29T05:13:42;8.10;;;6.30;;
6424;SDS011;12193;42.642;23.384;2022-07-29T05:16:12;9.15;;;6.32;;
6424;SDS011;12193;42.642;23.384;2022-07-29T05:18:42;8.77;;;6.35;;
6424;SDS011;12193;42.642;23.384;2022-07-29T05:21:11;9.10;;;6.70;;
6424;SDS011;12193;42.642;23.384;2022-07-29T05:23:43;10.27;;;6.20;;
6424;SDS011;12193;42.642;23.384;2022-07-29T05:26:12;7.65;;;6.00;;
6424;SDS011;12193;42.642;23.384;2022-07-29T05:28:42;7.53;;;6.43;;
6424;SDS011;12193;42.642;23.384;2022-07-29T05:31:11;11.60;;;7.27;;
6424;SDS011;12193;42.642;23.384;2022-07-29T05:33:40;9.82;;;6.47;;
6424;SDS011;12193;42.642;23.384;2022-07-29T05:36:09;10.47;;;6.73;;
6424;SDS011;12193;42.642;23.384;2022-07-29T05:38:39;9.15;;;6.57;;
6424;SDS011;12193;42.642;23.384;2022-07-29T05:41:11;10.68;;;7.40;;
6424;SDS011;12193;42.642;23.384;2022-07-29T05:43:40;8.88;;;6.78;;
6424;SDS011;12193;42.642;23.384;2022-07-29T05:46:09;9.73;;;6.95;;
6424;SDS011;12193;42.642;23.384;2022-07-29T05:48:39;9.57;;;6.72;;
6424;SDS011;12193;42.642;23.384;2022-07-29T05:51:09;12.82;;;8.15;;
6424;SDS011;12193;42.642;23.384;2022-07-29T05:53:38;12.05;;;7.65;;
6424;SDS011;12193;42.642;23.384;2022-07-29T05:56:08;11.30;;;7.90;;
6424;SDS011;12193;42.642;23.384;2022-07-29T05:58:40;11.77;;;7.22;;
6424;SDS011;12193;42.642;23.384;2022-07-29T06:01:09;12.27;;;7.47;;
6424;SDS011;12193;42.642;23.384;2022-07-29T06:03:38;10.30;;;7.82;;
6424;SDS011;12193;42.642;23.384;2022-07-29T06:06:08;9.57;;;7.32;;
6424;SDS011;12193;42.642;23.384;2022-07-29T06:08:38;12.20;;;7.72;;
6424;SDS011;12193;42.642;23.384;2022-07-29T06:11:07;11.73;;;7.55;;
6424;SDS011;12193;42.642;23.384;2022-07-29T06:13:39;12.23;;;7.57;;
6424;SDS011;12193;42.642;23.384;2022-07-29T06:16:09;12.38;;;8.00;;
6424;SDS011;12193;42.642;23.384;2022-07-29T06:18:38;9.70;;;7.85;;
6424;SDS011;12193;42.642;23.384;2022-07-29T06:21:07;11.97;;;7.93;;
6424;SDS011;12193;42.642;23.384;2022-07-29T06:23:38;10.25;;;7.80;;
6424;SDS011;12193;42.642;23.384;2022-07-29T06:26:07;10.70;;;7.50;;
6424;SDS011;12193;42.642;23.384;2022-07-29T06:28:40;12.30;;;7.85;;
6424;SDS011;12193;42.642;23.384;2022-07-29T06:31:09;11.38;;;7.72;;
6424;SDS011;12193;42.642;23.384;2022-07-29T06:33:38;9.20;;;7.97;;
6424;SDS011;12193;42.642;23.384;2022-07-29T06:36:08;12.05;;;7.60;;
6424;SDS011;12193;42.642;23.384;2022-07-29T06:38:37;9.98;;;7.30;;
6424;SDS011;12193;42.642;23.384;2022-07-29T06:41:07;8.82;;;7.28;;
6424;SDS011;12193;42.642;23.384;2022-07-29T06:43:41;10.07;;;6.90;;
6424;SDS011;12193;42.642;23.384;2022-07-29T06:46:12;10.27;;;6.68;;
6424;SDS011;12193;42.642;23.384;2022-07-29T06:48:44;10.55;;;6.82;;
6424;SDS011;12193;42.642;23.384;2022-07-29T06:51:13;9.65;;;7.00;;
6424;SDS011;12193;42.642;23.384;2022-07-29T06:53:43;9.90;;;6.95;;
6424;SDS011;12193;42.642;23.384;2022-07-29T06:56:12;8.73;;;6.70;;
6424;SDS011;12193;42.642;23.384;2022-07-29T06:58:44;7.80;;;6.07;;
6424;SDS011;12193;42.642;23.384;2022-07-29T07:01:14;9.95;;;6.57;;
6424;SDS011;12193;42.642;23.384;2022-07-29T07:03:43;8.02;;;6.20;;
6424;SDS011;12193;42.642;23.384;2022-07-29T07:06:12;8.88;;;6.03;;
6424;SDS011;12193;42.642;23.384;2022-07-29T07:08:42;9.40;;;5.70;;
6424;SDS011;12193;42.642;23.384;2022-07-29T07:11:11;6.60;;;5.80;;
6424;SDS011;12193;42.642;23.384;2022-07-29T07:13:40;8.23;;;5.43;;
6424;SDS011;12193;42.642;23.384;2022-07-29T07:16:13;6.17;;;5.40;;
6424;SDS011;12193;42.642;23.384;2022-07-29T07:18:42;6.53;;;5.63;;
6424;SDS011;12193;42.642;23.384;2022-07-29T07:21:12;8.52;;;5.78;;
6424;SDS011;12193;42.642;23.384;2022-07-29T07:23:42;7.40;;;5.32;;
6424;SDS011;12193;42.642;23.384;2022-07-29T07:26:11;8.75;;;5.13;;
6424;SDS011;12193;42.642;23.384;2022-07-29T07:28:40;6.00;;;5.30;;
6424;SDS011;12193;42.642;23.384;2022-07-29T07:31:12;6.40;;;4.88;;
6424;SDS011;12193;42.642;23.384;2022-07-29T07:33:41;7.10;;;5.03;;
6424;SDS011;12193;42.642;23.384;2022-07-29T07:36:11;6.13;;;4.78;;
6424;SDS011;12193;42.642;23.384;2022-07-29T07:38:40;6.75;;;4.93;;
6424;SDS011;12193;42.642;23.384;2022-07-29T07:41:09;6.05;;;4.80;;
6424;SDS011;12193;42.642;23.384;2022-07-29T07:43:38;6.57;;;5.07;;
6424;SDS011;12193;42.642;23.384;2022-07-29T07:46:08;6.03;;;4.65;;
6424;SDS011;12193;42.642;23.384;2022-07-29T07:48:40;5.97;;;4.63;;
6424;SDS011;12193;42.642;23.384;2022-07-29T07:51:09;5.05;;;4.50;;
6424;SDS011;12193;42.642;23.384;2022-07-29T07:53:39;7.13;;;4.50;;
6424;SDS011;12193;42.642;23.384;2022-07-29T07:56:10;6.78;;;4.75;;
6424;SDS011;12193;42.642;23.384;2022-07-29T07:58:39;5.77;;;4.57;;
6424;SDS011;12193;42.642;23.384;2022-07-29T08:01:09;6.00;;;4.53;;
6424;SDS011;12193;42.642;23.384;2022-07-29T08:03:41;6.78;;;4.63;;
6424;SDS011;12193;42.642;23.384;2022-07-29T08:06:10;5.65;;;4.68;;
6424;SDS011;12193;42.642;23.384;2022-07-29T08:08:39;5.20;;;4.43;;
6424;SDS011;12193;42.642;23.384;2022-07-29T08:11:09;7.22;;;4.57;;
6424;SDS011;12193;42.642;23.384;2022-07-29T08:13:39;5.47;;;4.50;;
6424;SDS011;12193;42.642;23.384;2022-07-29T08:16:09;6.03;;;4.68;;
6424;SDS011;12193;42.642;23.384;2022-07-29T08:18:44;6.13;;;4.40;;
6424;SDS011;12193;42.642;23.384;2022-07-29T08:21:14;5.70;;;4.28;;
6424;SDS011;12193;42.642;23.384;2022-07-29T08:23:44;4.78;;;4.20;;
6424;SDS011;12193;42.642;23.384;2022-07-29T08:26:16;4.53;;;4.00;;
6424;SDS011;12193;42.642;23.384;2022-07-29T08:28:45;6.00;;;3.85;;
6424;SDS011;12193;42.642;23.384;2022-07-29T08:31:16;4.33;;;3.90;;
6424;SDS011;12193;42.642;23.384;2022-07-29T08:33:49;6.32;;;3.90;;
6424;SDS011;12193;42.642;23.384;2022-07-29T08:36:18;4.30;;;3.80;;
6424;SDS011;12193;42.642;23.384;2022-07-29T08:38:48;4.47;;;3.70;;
6424;SDS011;12193;42.642;23.384;2022-07-29T08:41:17;7.38;;;4.90;;
6424;SDS011;12193;42.642;23.384;2022-07-29T08:43:47;8.02;;;5.18;;
6424;SDS011;12193;42.642;23.384;2022-07-29T08:46:18;7.13;;;4.30;;
6424;SDS011;12193;42.642;23.384;2022-07-29T08:48:51;5.85;;;3.78;;
6424;SDS011;12193;42.642;23.384;2022-07-29T08:51:20;5.20;;;3.97;;
6424;SDS011;12193;42.642;23.384;2022-07-29T08:53:50;4.10;;;3.70;;
6424;SDS011;12193;42.642;23.384;2022-07-29T08:56:20;5.38;;;3.70;;
6424;SDS011;12193;42.642;23.384;2022-07-29T08:58:49;4.63;;;3.90;;
6424;SDS011;12193;42.642;23.384;2022-07-29T09:01:22;5.15;;;3.80;;
6424;SDS011;12193;42.642;23.384;2022-07-29T09:03:57;4.78;;;3.63;;
6424;SDS011;12193;42.642;23.384;2022-07-29T09:06:29;6.65;;;3.70;;
6424;SDS011;12193;42.642;23.384;2022-07-29T09:09:01;5.10;;;3.80;;
6424;SDS011;12193;42.642;23.384;2022-07-29T09:11:31;5.88;;;4.25;;
6424;SDS011;12193;42.642;23.384;2022-07-29T09:14:01;7.05;;;4.07;;
6424;SDS011;12193;42.642;23.384;2022-07-29T09:16:43;4.40;;;3.90;;
6424;SDS011;12193;42.642;23.384;2022-07-29T09:19:22;5.78;;;4.03;;
6424;SDS011;12193;42.642;23.384;2022-07-29T09:21:56;5.85;;;4.15;;
6424;SDS011;12193;42.642;23.384;2022-07-29T09:24:24;5.72;;;4.22;;
6424;SDS011;12193;42.642;23.384;2022-07-29T09:26:55;5.70;;;4.32;;
6424;SDS011;12193;42.642;23.384;2022-07-29T09:29:24;7.53;;;4.30;;
6424;SDS011;12193;42.642;23.384;2022-07-29T09:31:54;6.85;;;4.47;;
6424;SDS011;12193;42.642;23.384;2022-07-29T09:34:27;6.10;;;4.30;;
6424;SDS011;12193;42.642;23.384;2022-07-29T09:36:57;6.77;;;4.50;;
6424;SDS011;12193;42.642;23.384;2022-07-29T09:39:27;6.38;;;4.40;;
6424;SDS011;12193;42.642;23.384;2022-07-29T09:41:58;5.90;;;4.40;;
6424;SDS011;12193;42.642;23.384;2022-07-29T09:44:40;6.72;;;4.63;;
6424;SDS011;12193;42.642;23.384;2022-07-29T09:47:11;7.05;;;4.63;;
6424;SDS011;12193;42.642;23.384;2022-07-29T09:49:53;6.18;;;4.60;;
6424;SDS011;12193;42.642;23.384;2022-07-29T09:52:24;5.85;;;4.97;;
6424;SDS011;12193;42.642;23.384;2022-07-29T09:55:03;7.38;;;4.40;;
6424;SDS011;12193;42.642;23.384;2022-07-29T09:57:33;7.07;;;4.68;;
6424;SDS011;12193;42.642;23.384;2022-07-29T10:00:04;5.45;;;4.20;;
6424;SDS011;12193;42.642;23.384;2022-07-29T10:02:36;4.43;;;4.03;;
6424;SDS011;12193;42.642;23.384;2022-07-29T10:05:16;5.07;;;4.10;;
6424;SDS011;12193;42.642;23.384;2022-07-29T10:07:47;6.30;;;5.00;;
6424;SDS011;12193;42.642;23.384;2022-07-29T10:10:19;5.77;;;5.17;;
6424;SDS011;12193;42.642;23.384;2022-07-29T10:12:50;6.63;;;5.25;;
6424;SDS011;12193;42.642;23.384;2022-07-29T10:15:22;6.00;;;5.40;;
6424;SDS011;12193;42.642;23.384;2022-07-29T10:17:54;5.97;;;5.38;;
6424;SDS011;12193;42.642;23.384;2022-07-29T10:20:27;7.20;;;5.10;;
6424;SDS011;12193;42.642;23.384;2022-07-29T10:22:57;5.53;;;4.57;;
6424;SDS011;12193;42.642;23.384;2022-07-29T10:25:27;5.43;;;4.80;;
6424;SDS011;12193;42.642;23.384;2022-07-29T10:27:56;5.95;;;5.28;;
6424;SDS011;12193;42.642;23.384;2022-07-29T10:30:25;6.32;;;5.13;;
6424;SDS011;12193;42.642;23.384;2022-07-29T10:36:05;6.70;;;4.93;;
6424;SDS011;12193;42.642;23.384;2022-07-29T10:38:45;7.93;;;3.97;;
6424;SDS011;12193;42.642;23.384;2022-07-29T10:41:30;4.80;;;4.28;;
6424;SDS011;12193;42.642;23.384;2022-07-29T10:44:09;6.90;;;4.03;;
6424;SDS011;12193;42.642;23.384;2022-07-29T10:46:43;5.10;;;4.10;;
6424;SDS011;12193;42.642;23.384;2022-07-29T10:49:13;9.77;;;7.57;;
6424;SDS011;12193;42.642;23.384;2022-07-29T10:51:53;10.80;;;9.13;;
6424;SDS011;12193;42.642;23.384;2022-07-29T10:54:38;6.93;;;4.65;;
6424;SDS011;12193;42.642;23.384;2022-07-29T10:57:15;6.55;;;4.18;;
6424;SDS011;12193;42.642;23.384;2022-07-29T10:59:46;5.32;;;3.90;;
6424;SDS011;12193;42.642;23.384;2022-07-29T11:05:17;5.80;;;4.50;;
6424;SDS011;12193;42.642;23.384;2022-07-29T11:10:50;6.05;;;4.53;;
6424;SDS011;12193;42.642;23.384;2022-07-29T11:16:21;5.67;;;4.30;;
6424;SDS011;12193;42.642;23.384;2022-07-29T11:21:48;5.93;;;4.10;;
6424;SDS011;12193;42.642;23.384;2022-07-29T11:24:22;5.53;;;4.40;;
6424;SDS011;12193;42.642;23.384;2022-07-29T11:27:09;6.60;;;4.55;;
6424;SDS011;12193;42.642;23.384;2022-07-29T11:29:49;5.60;;;4.50;;
6424;SDS011;12193;42.642;23.384;2022-07-29T11:32:23;6.07;;;4.63;;
6424;SDS011;12193;42.642;23.384;2022-07-29T11:35:13;5.75;;;4.57;;
6424;SDS011;12193;42.642;23.384;2022-07-29T11:37:44;5.10;;;4.43;;
6424;SDS011;12193;42.642;23.384;2022-07-29T11:40:17;6.90;;;5.00;;
6424;SDS011;12193;42.642;23.384;2022-07-29T11:42:50;6.22;;;4.20;;
6424;SDS011;12193;42.642;23.384;2022-07-29T11:45:21;6.13;;;4.78;;
6424;SDS011;12193;42.642;23.384;2022-07-29T11:47:55;5.38;;;4.60;;
6424;SDS011;12193;42.642;23.384;2022-07-29T11:50:27;5.13;;;4.60;;
6424;SDS011;12193;42.642;23.384;2022-07-29T11:53:02;6.28;;;5.30;;
6424;SDS011;12193;42.642;23.384;2022-07-29T11:55:41;6.30;;;4.90;;
6424;SDS011;12193;42.642;23.384;2022-07-29T11:58:11;6.85;;;4.85;;
6424;SDS011;12193;42.642;23.384;2022-07-29T12:00:40;5.15;;;4.65;;
6424;SDS011;12193;42.642;23.384;2022-07-29T12:03:11;6.30;;;5.00;;
6424;SDS011;12193;42.642;23.384;2022-07-29T12:05:52;6.10;;;5.15;;
6424;SDS011;12193;42.642;23.384;2022-07-29T12:08:22;5.43;;;4.70;;
6424;SDS011;12193;42.642;23.384;2022-07-29T12:10:55;5.80;;;5.20;;
6424;SDS011;12193;42.642;23.384;2022-07-29T12:13:24;7.72;;;5.30;;
6424;SDS011;12193;42.642;23.384;2022-07-29T12:15:54;6.45;;;5.75;;
6424;SDS011;12193;42.642;23.384;2022-07-29T12:18:26;6.82;;;5.68;;
6424;SDS011;12193;42.642;23.384;2022-07-29T12:20:59;8.23;;;5.77;;
6424;SDS011;12193;42.642;23.384;2022-07-29T12:23:30;7.07;;;5.83;;
6424;SDS011;12193;42.642;23.384;2022-07-29T12:26:03;8.02;;;5.90;;
6424;SDS011;12193;42.642;23.384;2022-07-29T12:28:36;6.00;;;5.40;;
6424;SDS011;12193;42.642;23.384;2022-07-29T12:31:08;7.13;;;5.60;;
6424;SDS011;12193;42.642;23.384;2022-07-29T12:33:41;5.90;;;5.30;;
6424;SDS011;12193;42.642;23.384;2022-07-29T12:36:12;7.35;;;5.40;;
6424;SDS011;12193;42.642;23.384;2022-07-29T12:38:42;5.78;;;5.15;;
6424;SDS011;12193;42.642;23.384;2022-07-29T12:41:15;6.93;;;5.53;;
6424;SDS011;12193;42.642;23.384;2022-07-29T12:43:51;6.28;;;5.50;;
6424;SDS011;12193;42.642;23.384;2022-07-29T12:46:22;6.65;;;5.72;;
6424;SDS011;12193;42.642;23.384;2022-07-29T12:48:52;5.97;;;5.22;;
6424;SDS011;12193;42.642;23.384;2022-07-29T12:51:28;7.07;;;5.50;;
6424;SDS011;12193;42.642;23.384;2022-07-29T12:54:02;6.22;;;5.35;;
6424;SDS011;12193;42.642;23.384;2022-07-29T12:56:36;7.68;;;5.90;;
6424;SDS011;12193;42.642;23.384;2022-07-29T12:59:13;7.53;;;5.70;;
6424;SDS011;12193;42.642;23.384;2022-07-29T13:01:44;6.50;;;5.80;;
6424;SDS011;12193;42.642;23.384;2022-07-29T13:04:24;8.15;;;5.60;;
6424;SDS011;12193;42.642;23.384;2022-07-29T13:06:58;7.95;;;6.10;;
6424;SDS011;12193;42.642;23.384;2022-07-29T13:09:35;6.10;;;5.50;;
6424;SDS011;12193;42.642;23.384;2022-07-29T13:12:09;6.68;;;5.70;;
6424;SDS011;12193;42.642;23.384;2022-07-29T13:14:39;8.03;;;6.13;;
6424;SDS011;12193;42.642;23.384;2022-07-29T13:17:11;6.70;;;5.93;;
6424;SDS011;12193;42.642;23.384;2022-07-29T13:19:42;6.82;;;6.00;;
6424;SDS011;12193;42.642;23.384;2022-07-29T13:22:13;7.32;;;5.88;;
6424;SDS011;12193;42.642;23.384;2022-07-29T13:24:47;6.57;;;5.88;;
6424;SDS011;12193;42.642;23.384;2022-07-29T13:27:21;8.40;;;6.20;;
6424;SDS011;12193;42.642;23.384;2022-07-29T13:29:52;6.20;;;5.30;;
6424;SDS011;12193;42.642;23.384;2022-07-29T13:32:23;6.40;;;5.68;;
6424;SDS011;12193;42.642;23.384;2022-07-29T13:34:54;6.25;;;5.50;;
6424;SDS011;12193;42.642;23.384;2022-07-29T13:37:23;6.32;;;5.60;;
6424;SDS011;12193;42.642;23.384;2022-07-29T13:39:55;5.40;;;4.90;;
6424;SDS011;12193;42.642;23.384;2022-07-29T13:42:27;6.13;;;5.50;;
6424;SDS011;12193;42.642;23.384;2022-07-29T13:44:57;7.20;;;5.82;;
6424;SDS011;12193;42.642;23.384;2022-07-29T13:47:26;5.65;;;5.05;;
6424;SDS011;12193;42.642;23.384;2022-07-29T13:49:56;7.50;;;5.68;;
6424;SDS011;12193;42.642;23.384;2022-07-29T13:52:26;7.43;;;6.40;;
6424;SDS011;12193;42.642;23.384;2022-07-29T13:54:56;6.50;;;5.70;;
6424;SDS011;12193;42.642;23.384;2022-07-29T13:57:29;6.03;;;5.40;;
6424;SDS011;12193;42.642;23.384;2022-07-29T13:59:58;6.93;;;5.18;;
6424;SDS011;12193;42.642;23.384;2022-07-29T14:02:27;6.50;;;5.20;;
6424;SDS011;12193;42.642;23.384;2022-07-29T14:04:57;8.33;;;5.30;;
6424;SDS011;12193;42.642;23.384;2022-07-29T14:07:26;6.20;;;5.43;;
6424;SDS011;12193;42.642;23.384;2022-07-29T14:09:55;5.90;;;5.30;;
6424;SDS011;12193;42.642;23.384;2022-07-29T14:12:27;5.80;;;5.20;;
6424;SDS011;12193;42.642;23.384;2022-07-29T14:14:57;6.45;;;4.90;;
6424;SDS011;12193;42.642;23.384;2022-07-29T14:17:26;6.85;;;4.88;;
6424;SDS011;12193;42.642;23.384;2022-07-29T14:19:55;5.95;;;5.35;;
6424;SDS011;12193;42.642;23.384;2022-07-29T14:22:25;6.13;;;5.27;;
6424;SDS011;12193;42.642;23.384;2022-07-29T14:24:55;5.85;;;5.25;;
6424;SDS011;12193;42.642;23.384;2022-07-29T14:27:24;6.47;;;5.60;;
6424;SDS011;12193;42.642;23.384;2022-07-29T14:29:56;6.00;;;5.10;;
6424;SDS011;12193;42.642;23.384;2022-07-29T14:32:26;7.03;;;5.30;;
6424;SDS011;12193;42.642;23.384;2022-07-29T14:34:55;7.45;;;5.32;;
6424;SDS011;12193;42.642;23.384;2022-07-29T14:37:25;5.80;;;5.20;;
6424;SDS011;12193;42.642;23.384;2022-07-29T14:39:54;7.03;;;5.43;;
6424;SDS011;12193;42.642;23.384;2022-07-29T14:42:25;6.95;;;5.40;;
6424;SDS011;12193;42.642;23.384;2022-07-29T14:44:57;6.63;;;5.37;;
6424;SDS011;12193;42.642;23.384;2022-07-29T14:47:26;7.05;;;5.80;;
6424;SDS011;12193;42.642;23.384;2022-07-29T14:49:56;6.07;;;5.47;;
6424;SDS011;12193;42.642;23.384;2022-07-29T14:52:25;7.20;;;5.30;;
6424;SDS011;12193;42.642;23.384;2022-07-29T14:54:54;7.03;;;5.35;;
6424;SDS011;12193;42.642;23.384;2022-07-29T14:57:24;7.77;;;5.87;;
6424;SDS011;12193;42.642;23.384;2022-07-29T14:59:53;6.20;;;5.50;;
6424;SDS011;12193;42.642;23.384;2022-07-29T15:02:25;6.57;;;5.70;;
6424;SDS011;12193;42.642;23.384;2022-07-29T15:04:55;6.60;;;5.55;;
6424;SDS011;12193;42.642;23.384;2022-07-29T15:07:24;8.80;;;5.80;;
6424;SDS011;12193;42.642;23.384;2022-07-29T15:09:53;7.25;;;5.82;;
6424;SDS011;12193;42.642;23.384;2022-07-29T15:12:23;6.20;;;5.28;;
6424;SDS011;12193;42.642;23.384;2022-07-29T15:14:52;7.27;;;5.17;;
6424;SDS011;12193;42.642;23.384;2022-07-29T15:17:22;5.70;;;5.07;;
6424;SDS011;12193;42.642;23.384;2022-07-29T15:19:54;5.90;;;4.80;;
6424;SDS011;12193;42.642;23.384;2022-07-29T15:22:23;6.22;;;5.00;;
6424;SDS011;12193;42.642;23.384;2022-07-29T15:24:53;7.10;;;4.97;;
6424;SDS011;12193;42.642;23.384;2022-07-29T15:27:22;5.88;;;4.75;;